createdAt,value
2023-03-18T00:00:29.828Z,58.20
2023-03-18T00:02:59.738Z,58.50
2023-03-18T00:05:29.165Z,58.20
2023-03-18T00:07:59.614Z,58.10
2023-03-18T00:10:33.997Z,58.20
2023-03-18T00:13:04.507Z,58.60
2023-03-18T00:15:32.680Z,58.90
2023-03-18T00:18:00.531Z,58.80
2023-03-18T00:20:39.530Z,59.00
2023-03-18T00:23:11.370Z,59.00
2023-03-18T00:25:39.332Z,59.20
2023-03-18T00:28:08.023Z,59.10
2023-03-18T00:30:39.413Z,59.50
2023-03-18T00:33:12.881Z,59.90
2023-03-18T00:35:47.524Z,59.90
2023-03-18T00:38:21.162Z,60.40
2023-03-18T00:41:01.975Z,60.20
2023-03-18T00:43:35.966Z,60.60
2023-03-18T00:46:04.100Z,60.80
2023-03-18T00:48:34.231Z,60.80
2023-03-18T00:51:01.711Z,60.70
2023-03-18T00:53:29.099Z,60.90
2023-03-18T00:56:00.685Z,60.70
2023-03-18T00:58:28.016Z,60.80
2023-03-18T01:00:54.978Z,61.20
2023-03-18T01:03:26.539Z,61.00
2023-03-18T01:05:56.154Z,60.90
2023-03-18T01:08:27.701Z,60.90
2023-03-18T01:10:57.900Z,61.10
2023-03-18T01:13:40.703Z,61.00
2023-03-18T01:16:09.839Z,60.90
2023-03-18T01:18:39.695Z,61.00
2023-03-18T01:21:07.672Z,61.30
2023-03-18T01:23:36.193Z,61.50
2023-03-18T01:26:04.492Z,61.20
2023-03-18T01:28:32.629Z,61.30
2023-03-18T01:31:00.400Z,61.00
2023-03-18T01:33:30.175Z,61.30
2023-03-18T01:36:02.626Z,61.00
2023-03-18T01:38:33.208Z,61.20
2023-03-18T01:41:01.472Z,61.30
2023-03-18T01:43:35.322Z,61.60
2023-03-18T01:46:29.808Z,61.60
2023-03-18T01:49:01.862Z,61.80
2023-03-18T01:51:40.095Z,61.90
2023-03-18T01:54:09.343Z,62.20
2023-03-18T01:56:39.396Z,62.10
2023-03-18T01:59:11.421Z,62.50
2023-03-18T02:01:50.008Z,62.50
2023-03-18T02:04:24.255Z,62.70
2023-03-18T02:06:54.097Z,62.60
2023-03-18T02:09:21.399Z,62.80
2023-03-18T02:14:27.013Z,62.90
2023-03-18T02:17:04.995Z,63.10
2023-03-18T02:19:51.103Z,63.40
2023-03-18T02:22:35.844Z,63.30
2023-03-18T02:25:37.758Z,63.50
2023-03-18T02:28:13.859Z,63.40
2023-03-18T02:30:47.764Z,63.60
2023-03-18T02:33:34.145Z,63.50
2023-03-18T02:36:06.831Z,63.60
2023-03-18T02:38:34.569Z,63.70
2023-03-18T02:41:01.923Z,63.50
2023-03-18T02:43:33.737Z,63.70
2023-03-18T02:46:26.822Z,63.70
2023-03-18T02:48:55.637Z,63.60
2023-03-18T02:51:33.757Z,63.60
2023-03-18T02:54:12.367Z,63.50
2023-03-18T02:56:42.609Z,63.60
2023-03-18T02:59:12.470Z,63.60
2023-03-18T03:01:41.426Z,63.70
2023-03-18T03:04:09.362Z,63.90
2023-03-18T03:06:38.193Z,63.90
2023-03-18T03:09:07.579Z,63.60
2023-03-18T03:11:35.397Z,63.70
2023-03-18T03:14:03.104Z,63.80
2023-03-18T03:16:34.577Z,64.00
2023-03-18T03:19:02.473Z,64.10
2023-03-18T03:21:30.185Z,63.90
2023-03-18T03:23:59.631Z,64.00
2023-03-18T03:26:27.475Z,63.90
2023-03-18T03:28:54.939Z,63.80
2023-03-18T03:31:29.024Z,64.00
2023-03-18T03:33:59.227Z,64.10
2023-03-18T03:36:27.802Z,64.20
2023-03-18T03:38:58.144Z,64.20
2023-03-18T03:41:27.146Z,64.30
2023-03-18T03:43:57.982Z,64.30
2023-03-18T03:46:25.691Z,64.30
2023-03-18T03:48:58.907Z,64.40
2023-03-18T03:51:35.750Z,64.50
2023-03-18T03:54:03.876Z,64.20
2023-03-18T03:56:34.820Z,64.10
2023-03-18T03:59:04.981Z,64.00
2023-03-18T04:01:35.538Z,63.70
2023-03-18T04:04:03.522Z,63.80
2023-03-18T04:06:31.559Z,63.80
2023-03-18T04:09:00.901Z,63.70
2023-03-18T04:11:31.780Z,63.90
2023-03-18T04:13:59.623Z,63.50
2023-03-18T04:16:29.565Z,63.40
2023-03-18T04:18:57.556Z,63.00
2023-03-18T04:21:30.493Z,63.20
2023-03-18T04:23:58.078Z,63.10
2023-03-18T04:26:26.461Z,62.70
2023-03-18T04:28:53.529Z,62.60
2023-03-18T04:31:29.271Z,62.60
2023-03-18T04:33:57.503Z,62.60
2023-03-18T04:36:27.455Z,62.50
2023-03-18T04:38:58.567Z,62.40
2023-03-18T04:41:26.770Z,62.50
2023-03-18T04:43:54.863Z,62.60
2023-03-18T04:46:22.351Z,62.60
2023-03-18T04:48:52.270Z,62.30
2023-03-18T04:51:23.038Z,62.10
2023-03-18T04:53:51.029Z,61.50
2023-03-18T04:56:26.000Z,61.60
2023-03-18T04:58:59.073Z,61.50
2023-03-18T05:01:30.061Z,61.80
2023-03-18T05:03:58.166Z,61.20
2023-03-18T05:06:28.879Z,61.00
2023-03-18T05:08:59.904Z,61.10
2023-03-18T05:11:35.950Z,61.10
2023-03-18T05:14:03.518Z,60.80
2023-03-18T05:16:31.049Z,60.80
2023-03-18T05:19:02.334Z,60.30
2023-03-18T05:21:32.719Z,60.30
2023-03-18T05:24:02.791Z,60.10
2023-03-18T05:26:31.219Z,60.00
2023-03-18T05:28:59.666Z,59.80
2023-03-18T05:31:26.979Z,59.70
2023-03-18T05:34:02.563Z,59.30
2023-03-18T05:36:30.851Z,59.20
2023-03-18T05:39:01.485Z,59.30
2023-03-18T05:41:28.937Z,59.20
2023-03-18T05:43:56.702Z,58.70
2023-03-18T05:46:24.545Z,58.70
2023-03-18T05:48:52.545Z,58.40
2023-03-18T05:51:22.340Z,58.30
2023-03-18T05:53:52.985Z,58.00
2023-03-18T05:56:20.375Z,57.70
2023-03-18T05:58:52.478Z,57.60
2023-03-18T06:01:20.354Z,57.30
2023-03-18T06:03:47.485Z,57.10
2023-03-18T06:06:18.167Z,56.90
2023-03-18T06:08:48.412Z,56.50
2023-03-18T06:11:15.854Z,56.40
2023-03-18T06:13:43.541Z,55.70
2023-03-18T06:16:14.512Z,55.50
2023-03-18T06:18:45.120Z,54.80
2023-03-18T06:21:16.979Z,54.00
2023-03-18T06:23:45.135Z,53.40
2023-03-18T06:26:13.235Z,52.10
2023-03-18T06:28:44.791Z,51.00
2023-03-18T06:31:19.923Z,50.50
2023-03-18T06:33:56.741Z,49.50
2023-03-18T06:36:23.999Z,48.70
2023-03-18T06:38:54.039Z,47.80
2023-03-18T06:41:25.009Z,47.20
2023-03-18T06:43:57.990Z,46.80
2023-03-18T06:46:25.547Z,46.50
2023-03-18T06:48:52.722Z,45.60
2023-03-18T06:51:25.161Z,45.10
2023-03-18T06:53:52.816Z,45.10
2023-03-18T06:56:22.231Z,44.50
2023-03-18T06:58:52.764Z,43.60
2023-03-18T07:01:23.729Z,42.60
2023-03-18T07:03:51.575Z,41.90
2023-03-18T07:06:19.450Z,40.30
2023-03-18T07:08:47.461Z,39.70
2023-03-18T07:11:18.675Z,39.50
2023-03-18T07:13:53.514Z,39.40
2023-03-18T07:16:22.346Z,39.30
2023-03-18T07:18:50.660Z,39.00
2023-03-18T07:21:22.205Z,38.00
2023-03-18T07:23:52.447Z,37.80
2023-03-18T07:26:20.480Z,37.50
2023-03-18T07:29:07.084Z,37.20
2023-03-18T07:31:40.385Z,37.00
2023-03-18T07:34:09.401Z,36.70
2023-03-18T07:36:37.193Z,36.40
2023-03-18T07:39:07.049Z,36.30
2023-03-18T07:41:37.620Z,36.30
2023-03-18T07:44:07.079Z,36.20
2023-03-18T07:46:35.114Z,35.70
2023-03-18T07:49:04.973Z,35.90
2023-03-18T07:51:32.943Z,36.20
2023-03-18T07:54:04.900Z,36.30
2023-03-18T07:56:32.008Z,36.20
2023-03-18T07:59:08.626Z,36.30
2023-03-18T08:01:36.993Z,36.50
2023-03-18T08:04:04.539Z,37.00
2023-03-18T08:06:33.030Z,37.80
2023-03-18T08:09:03.900Z,38.40
2023-03-18T08:11:33.890Z,39.00
2023-03-18T08:14:03.761Z,39.30
2023-03-18T08:16:33.996Z,38.80
2023-03-18T08:19:03.480Z,39.10
2023-03-18T08:21:36.836Z,38.80
2023-03-18T08:24:04.771Z,38.50
2023-03-18T08:26:35.649Z,38.70
2023-03-18T08:29:06.435Z,39.40
2023-03-18T08:31:36.447Z,39.70
2023-03-18T08:34:07.460Z,40.20
2023-03-18T08:36:46.370Z,40.30
2023-03-18T08:39:21.486Z,40.20
2023-03-18T08:41:54.611Z,41.20
2023-03-18T08:44:23.656Z,42.50
2023-03-18T08:46:54.477Z,42.60
2023-03-18T08:49:22.166Z,42.80
2023-03-18T08:51:59.566Z,42.90
2023-03-18T08:54:32.548Z,42.80
2023-03-18T08:57:03.228Z,42.30
2023-03-18T08:59:30.511Z,41.70
2023-03-18T09:01:58.127Z,41.40
2023-03-18T09:07:10.200Z,40.40
2023-03-18T09:09:43.677Z,39.60
2023-03-18T09:12:17.370Z,39.30
2023-03-18T09:14:45.930Z,39.30
2023-03-18T09:17:16.916Z,39.00
2023-03-18T09:19:45.827Z,38.80
2023-03-18T09:22:22.720Z,38.60
2023-03-18T09:24:57.447Z,38.40
2023-03-18T09:27:25.200Z,38.60
2023-03-18T09:29:52.936Z,38.90
2023-03-18T09:32:23.742Z,38.60
2023-03-18T09:34:51.921Z,38.40
2023-03-18T09:37:19.684Z,38.30
2023-03-18T09:39:49.153Z,37.80
2023-03-18T09:42:56.818Z,37.40
2023-03-18T09:46:10.122Z,36.90
2023-03-18T09:48:53.778Z,37.00
2023-03-18T09:51:25.612Z,37.00
2023-03-18T09:54:44.986Z,38.00
2023-03-18T09:57:28.632Z,38.40
2023-03-18T10:00:21.658Z,38.30
2023-03-18T10:03:06.567Z,38.40
2023-03-18T10:06:04.576Z,39.20
2023-03-18T10:08:50.391Z,40.10
2023-03-18T10:11:34.336Z,40.30
2023-03-18T10:14:17.681Z,40.20
2023-03-18T10:17:22.250Z,40.10
2023-03-18T10:19:57.761Z,40.50
2023-03-18T10:22:55.256Z,40.60
2023-03-18T10:25:50.800Z,40.50
2023-03-18T10:28:40.309Z,41.00
2023-03-18T10:31:24.873Z,41.10
2023-03-18T10:34:04.092Z,41.40
2023-03-18T10:37:13.070Z,41.50
2023-03-18T10:39:42.101Z,42.10
2023-03-18T10:42:30.378Z,42.90
2023-03-18T10:45:17.618Z,43.10
2023-03-18T10:47:50.895Z,43.20
2023-03-18T10:50:30.064Z,43.90
2023-03-18T10:53:01.863Z,43.80
2023-03-18T10:56:32.337Z,43.60
2023-03-18T10:59:00.010Z,44.10
2023-03-18T11:01:29.335Z,44.00
2023-03-18T11:04:01.948Z,44.50
2023-03-18T11:07:02.808Z,44.60
2023-03-18T11:09:39.570Z,44.70
2023-03-18T11:12:19.397Z,44.30
2023-03-18T11:14:58.070Z,44.90
2023-03-18T11:17:39.485Z,44.60
2023-03-18T11:20:47.503Z,44.70
2023-03-18T11:23:49.362Z,45.00
2023-03-18T11:26:28.317Z,45.30
2023-03-18T11:29:05.285Z,45.00
2023-03-18T11:31:51.568Z,45.30
2023-03-18T11:34:22.401Z,44.90
2023-03-18T11:37:08.376Z,44.70
2023-03-18T11:39:39.442Z,44.80
2023-03-18T11:42:33.282Z,45.10
2023-03-18T11:45:02.998Z,45.00
2023-03-18T11:47:35.338Z,45.10
2023-03-18T11:50:07.748Z,45.50
2023-03-18T11:52:35.006Z,45.70
2023-03-18T11:55:11.104Z,45.90
2023-03-18T11:57:58.133Z,46.00
2023-03-18T12:00:50.823Z,45.90
2023-03-18T12:04:17.719Z,46.30
2023-03-18T12:07:05.804Z,46.50
2023-03-18T12:09:39.694Z,46.60
2023-03-18T12:12:49.740Z,46.80
2023-03-18T12:15:23.177Z,47.00
2023-03-18T12:18:21.909Z,47.00
2023-03-18T12:20:54.698Z,47.20
2023-03-18T12:23:34.720Z,47.40
2023-03-18T12:26:16.489Z,47.50
2023-03-18T12:29:14.665Z,47.30
2023-03-18T12:31:52.586Z,47.60
2023-03-18T12:34:34.386Z,47.20
2023-03-18T12:37:32.614Z,47.40
2023-03-18T12:40:37.473Z,47.50
2023-03-18T12:43:40.975Z,47.30
2023-03-18T12:46:36.400Z,47.20
2023-03-18T12:49:25.592Z,47.30
2023-03-18T12:52:15.047Z,47.40
2023-03-18T12:54:56.245Z,47.70
2023-03-18T12:57:48.442Z,47.60
2023-03-18T13:00:21.240Z,47.60
2023-03-18T13:03:08.681Z,47.20
2023-03-18T13:05:53.718Z,47.20
2023-03-18T13:08:58.060Z,46.80
2023-03-18T13:12:09.268Z,46.50
2023-03-18T13:15:19.036Z,46.60
2023-03-18T13:17:49.177Z,46.40
2023-03-18T13:20:35.590Z,46.40
2023-03-18T13:23:05.999Z,46.40
2023-03-18T13:25:49.904Z,46.60
2023-03-18T13:28:21.344Z,46.80
2023-03-18T13:31:07.521Z,46.40
2023-03-18T13:34:05.404Z,46.40
2023-03-18T13:37:03.147Z,46.60
2023-03-18T13:39:54.777Z,46.60
2023-03-18T13:42:34.855Z,46.50
2023-03-18T13:45:25.903Z,46.30
2023-03-18T13:48:07.745Z,45.80
2023-03-18T13:50:40.507Z,45.80
2023-03-18T13:53:25.573Z,45.90
2023-03-18T13:56:00.699Z,45.60
2023-03-18T13:58:48.570Z,45.80
2023-03-18T14:01:36.610Z,45.60
2023-03-18T14:04:54.367Z,45.40
2023-03-18T14:07:23.728Z,45.40
2023-03-18T14:10:18.409Z,46.10
2023-03-18T14:12:50.378Z,46.10
2023-03-18T14:15:39.260Z,46.30
2023-03-18T14:18:21.310Z,46.30
2023-03-18T14:20:56.294Z,46.70
2023-03-18T14:23:29.571Z,47.00
2023-03-18T14:26:05.296Z,47.00
2023-03-18T14:28:57.415Z,46.90
2023-03-18T14:31:36.153Z,47.40
2023-03-18T14:34:03.337Z,47.20
2023-03-18T14:36:54.164Z,47.50
2023-03-18T14:39:39.803Z,47.00
2023-03-18T14:42:37.378Z,47.20
2023-03-18T14:45:20.058Z,47.50
2023-03-18T14:47:57.967Z,47.40
2023-03-18T14:50:34.773Z,47.80
2023-03-18T14:53:10.021Z,47.80
2023-03-18T14:55:47.903Z,47.90
2023-03-18T14:58:20.198Z,48.10
2023-03-18T15:00:54.313Z,48.60
2023-03-18T15:03:29.104Z,48.60
2023-03-18T15:06:02.813Z,48.70
2023-03-18T15:08:47.383Z,49.10
2023-03-18T15:11:20.327Z,49.20
2023-03-18T15:13:53.947Z,49.40
2023-03-18T15:16:24.085Z,49.50
2023-03-18T15:18:56.041Z,49.80
2023-03-18T15:21:30.579Z,50.00
2023-03-18T15:24:02.014Z,50.10
2023-03-18T15:26:37.825Z,50.20
2023-03-18T15:29:35.623Z,50.40
2023-03-18T15:32:26.562Z,50.80
2023-03-18T15:35:08.633Z,51.00
2023-03-18T15:37:44.805Z,51.30
2023-03-18T15:40:33.427Z,51.80
2023-03-18T15:43:10.189Z,52.00
2023-03-18T15:45:45.647Z,52.20
2023-03-18T15:48:55.168Z,52.70
2023-03-18T15:51:44.294Z,52.80
2023-03-18T15:54:31.205Z,53.10
2023-03-18T15:57:14.250Z,53.40
2023-03-18T15:59:41.440Z,53.70
2023-03-18T16:02:15.968Z,54.20
2023-03-18T16:04:46.007Z,54.80
2023-03-18T16:07:28.316Z,54.90
2023-03-18T16:09:57.999Z,55.30
2023-03-18T16:12:34.368Z,55.50
2023-03-18T16:15:08.061Z,55.80
2023-03-18T16:17:35.272Z,56.00
2023-03-18T16:20:04.342Z,56.20
2023-03-18T16:22:34.274Z,56.50
2023-03-18T16:25:01.757Z,56.50
2023-03-18T16:27:40.748Z,56.50
2023-03-18T16:30:23.862Z,56.80
2023-03-18T16:32:52.013Z,57.00
2023-03-18T16:35:25.847Z,57.10
2023-03-18T16:38:03.678Z,57.20
2023-03-18T16:40:32.634Z,57.10
2023-03-18T16:42:59.975Z,57.30
2023-03-18T16:45:30.938Z,57.30
2023-03-18T16:48:06.949Z,57.60
2023-03-18T16:50:41.408Z,57.50
2023-03-18T16:53:26.624Z,57.70
2023-03-18T16:56:00.469Z,57.70
2023-03-18T16:58:37.641Z,57.90
2023-03-18T17:01:07.584Z,58.30
2023-03-18T17:03:36.624Z,58.20
2023-03-18T17:06:06.303Z,58.20
2023-03-18T17:08:34.190Z,58.50
2023-03-18T17:11:07.526Z,58.60
2023-03-18T17:13:38.746Z,58.60
2023-03-18T17:16:14.529Z,58.90
2023-03-18T17:18:42.254Z,59.20
2023-03-18T17:21:12.265Z,59.30
2023-03-18T17:23:40.227Z,59.20
2023-03-18T17:26:11.684Z,59.30
2023-03-18T17:28:45.139Z,59.40
2023-03-18T17:31:17.194Z,59.70
2023-03-18T17:33:45.921Z,59.60
2023-03-18T17:36:13.062Z,59.80
2023-03-18T17:38:45.030Z,59.80
2023-03-18T17:41:26.471Z,59.90
2023-03-18T17:43:56.827Z,59.80
2023-03-18T17:46:27.989Z,60.20
2023-03-18T17:49:01.579Z,60.10
2023-03-18T17:51:33.161Z,60.30
2023-03-18T17:54:03.273Z,60.50
2023-03-18T17:56:33.946Z,60.90
2023-03-18T17:59:01.713Z,60.50
2023-03-18T18:01:30.247Z,61.10
2023-03-18T18:03:59.654Z,60.90
2023-03-18T18:06:29.571Z,60.90
2023-03-18T18:09:01.349Z,61.30
2023-03-18T18:11:29.851Z,61.10
2023-03-18T18:14:20.373Z,61.40
2023-03-18T18:16:51.715Z,61.10
2023-03-18T18:19:19.478Z,61.40
2023-03-18T18:21:51.341Z,61.50
2023-03-18T18:24:30.208Z,61.30
2023-03-18T18:26:57.538Z,61.60
2023-03-18T18:29:28.405Z,61.50
2023-03-18T18:31:57.431Z,61.70
2023-03-18T18:34:24.506Z,61.90
2023-03-18T18:36:52.399Z,62.10
2023-03-18T18:39:22.528Z,62.10
2023-03-18T18:41:53.115Z,62.10
2023-03-18T18:44:20.457Z,62.10
2023-03-18T18:46:50.825Z,62.00
2023-03-18T18:49:23.096Z,62.20
2023-03-18T18:51:55.332Z,61.90
2023-03-18T18:54:24.191Z,62.20
2023-03-18T18:56:59.336Z,62.20
2023-03-18T18:59:32.008Z,62.20
2023-03-18T19:02:00.846Z,62.20
2023-03-18T19:04:34.328Z,62.30
2023-03-18T19:07:06.798Z,62.60
2023-03-18T19:09:34.032Z,62.60
2023-03-18T19:12:01.256Z,62.80
2023-03-18T19:14:29.772Z,62.80
2023-03-18T19:17:04.361Z,62.80
2023-03-18T19:19:34.875Z,62.90
2023-03-18T19:22:06.842Z,63.10
2023-03-18T19:24:42.643Z,63.20
2023-03-18T19:27:27.849Z,63.30
2023-03-18T19:29:58.664Z,63.40
2023-03-18T19:32:26.605Z,63.50
2023-03-18T19:34:58.511Z,63.60
2023-03-18T19:37:31.418Z,64.00
2023-03-18T19:40:14.712Z,63.90
2023-03-18T19:42:41.836Z,64.00
2023-03-18T19:45:12.622Z,64.10
2023-03-18T19:47:43.551Z,64.40
2023-03-18T19:50:25.396Z,64.30
2023-03-18T19:52:59.465Z,64.30
2023-03-18T19:55:30.501Z,64.50
2023-03-18T19:57:58.135Z,64.70
2023-03-18T20:00:26.395Z,64.70
2023-03-18T20:02:54.458Z,64.80
2023-03-18T20:05:28.199Z,64.90
2023-03-18T20:07:55.378Z,64.80
2023-03-18T20:10:26.247Z,64.90
2023-03-18T20:12:56.297Z,65.00
2023-03-18T20:15:30.104Z,65.20
2023-03-18T20:17:59.714Z,65.20
2023-03-18T20:20:33.941Z,65.40
2023-03-18T20:23:04.157Z,65.50
2023-03-18T20:25:41.182Z,65.60
2023-03-18T20:28:17.632Z,65.80
2023-03-18T20:30:49.362Z,65.90
2023-03-18T20:33:16.903Z,66.10
2023-03-18T20:35:46.733Z,66.20
2023-03-18T20:38:39.242Z,66.20
2023-03-18T20:41:12.828Z,66.50
2023-03-18T20:43:39.979Z,66.60
2023-03-18T20:46:13.774Z,66.60
2023-03-18T20:48:41.704Z,66.80
2023-03-18T20:51:36.330Z,67.10
2023-03-18T20:54:18.953Z,67.30
2023-03-18T20:56:47.768Z,67.50
2023-03-18T20:59:15.018Z,67.50
2023-03-18T21:01:43.098Z,67.70
2023-03-18T21:04:16.598Z,67.80
2023-03-18T21:06:44.491Z,67.80
2023-03-18T21:09:13.328Z,67.80
2023-03-18T21:11:43.497Z,68.10
2023-03-18T21:14:16.214Z,68.00
2023-03-18T21:16:43.626Z,67.80
2023-03-18T21:19:11.368Z,68.00
2023-03-18T21:21:41.587Z,68.00
2023-03-18T21:24:30.173Z,68.10
2023-03-18T21:27:04.683Z,68.10
2023-03-18T21:29:33.487Z,68.10
2023-03-18T21:32:02.566Z,68.20
2023-03-18T21:34:35.581Z,68.30
2023-03-18T21:37:09.913Z,68.40
2023-03-18T21:39:37.109Z,68.40
2023-03-18T21:42:04.285Z,68.50
2023-03-18T21:44:36.463Z,68.60
2023-03-18T21:47:13.008Z,68.80
2023-03-18T21:49:44.233Z,68.90
2023-03-18T21:52:18.847Z,69.00
2023-03-18T21:54:47.133Z,69.10
2023-03-18T21:57:19.475Z,69.30
2023-03-18T21:59:49.779Z,69.30
2023-03-18T22:02:33.024Z,69.40
2023-03-18T22:05:04.681Z,69.70
2023-03-18T22:07:33.593Z,69.90
2023-03-18T22:10:06.746Z,69.90
2023-03-18T22:12:34.715Z,70.00
2023-03-18T22:15:02.034Z,70.10
2023-03-18T22:17:34.117Z,70.10
2023-03-18T22:20:02.676Z,70.20
2023-03-18T22:22:39.986Z,70.40
2023-03-18T22:25:08.582Z,70.40
2023-03-18T22:27:35.649Z,70.50
2023-03-18T22:30:02.947Z,70.40
2023-03-18T22:32:38.067Z,70.70
2023-03-18T22:35:12.702Z,70.70
2023-03-18T22:37:40.564Z,70.70
2023-03-18T22:40:25.363Z,70.70
2023-03-18T22:42:55.607Z,70.90
2023-03-18T22:45:27.618Z,71.00
2023-03-18T22:47:58.276Z,71.00
2023-03-18T22:50:30.764Z,71.00
2023-03-18T22:53:03.592Z,71.20
2023-03-18T22:55:40.322Z,71.20
2023-03-18T22:58:15.131Z,71.20
2023-03-18T23:00:44.268Z,71.30
2023-03-18T23:03:24.061Z,71.20
2023-03-18T23:05:54.013Z,71.10
2023-03-18T23:08:22.309Z,71.30
2023-03-18T23:11:06.941Z,71.30
2023-03-18T23:13:37.677Z,71.30
2023-03-18T23:16:06.984Z,71.40
2023-03-18T23:18:34.632Z,71.50
2023-03-18T23:21:04.801Z,71.60
2023-03-18T23:23:32.101Z,71.50
2023-03-18T23:26:06.788Z,71.50
2023-03-18T23:28:44.563Z,71.50
2023-03-18T23:31:14.225Z,71.60
2023-03-18T23:33:42.444Z,71.60
2023-03-18T23:36:10.695Z,71.60
2023-03-18T23:38:40.746Z,71.60
2023-03-18T23:41:08.635Z,71.60
2023-03-18T23:43:36.791Z,71.70
2023-03-18T23:46:04.780Z,71.60
2023-03-18T23:48:33.714Z,71.70
2023-03-18T23:51:06.627Z,71.60
2023-03-18T23:53:33.870Z,71.70
2023-03-18T23:56:04.386Z,71.80
2023-03-18T23:58:34.624Z,71.90
